createdAt,value
2018-03-30T00:00:23.177Z,-0.05
2018-03-30T00:01:23.072Z,-0.08
2018-03-30T00:02:23.171Z,-0.14
2018-03-30T00:03:23.100Z,-0.18
2018-03-30T00:04:23.136Z,-0.21
2018-03-30T00:05:23.092Z,-0.20
2018-03-30T00:06:23.181Z,-0.22
2018-03-30T00:07:23.125Z,-0.28
2018-03-30T00:08:23.098Z,-0.33
2018-03-30T00:09:23.181Z,-0.42
2018-03-30T00:10:23.106Z,-0.44
2018-03-30T00:11:23.139Z,-0.47
2018-03-30T00:12:23.133Z,-0.49
2018-03-30T00:13:23.187Z,-0.43
2018-03-30T00:14:23.105Z,-0.39
2018-03-30T00:15:23.102Z,-0.36
2018-03-30T00:16:23.196Z,-0.33
2018-03-30T00:17:23.202Z,-0.33
2018-03-30T00:18:23.147Z,-0.33
2018-03-30T00:19:23.197Z,-0.38
2018-03-30T00:20:23.144Z,-0.42
2018-03-30T00:21:23.168Z,-0.46
2018-03-30T00:22:23.152Z,-0.52
2018-03-30T00:23:23.192Z,-0.56
2018-03-30T00:24:23.146Z,-0.59
2018-03-30T00:25:23.144Z,-0.62
2018-03-30T00:26:23.208Z,-0.67
2018-03-30T00:27:23.186Z,-0.67
2018-03-30T00:28:23.153Z,-0.67
2018-03-30T00:29:23.193Z,-0.61
2018-03-30T00:30:23.088Z,-0.55
2018-03-30T00:31:23.195Z,-0.47
2018-03-30T00:32:23.203Z,-0.44
2018-03-30T00:33:23.158Z,-0.49
2018-03-30T00:34:23.120Z,-0.55
2018-03-30T00:35:23.151Z,-0.62
2018-03-30T00:36:23.162Z,-0.70
2018-03-30T00:37:23.152Z,-0.77
2018-03-30T00:38:23.095Z,-0.85
2018-03-30T00:39:23.207Z,-0.92
2018-03-30T00:40:23.217Z,-1.02
2018-03-30T00:41:23.091Z,-1.10
2018-03-30T00:42:23.112Z,-1.18
2018-03-30T00:43:23.120Z,-1.22
2018-03-30T00:44:23.156Z,-1.28
2018-03-30T00:45:23.093Z,-1.33
2018-03-30T00:46:23.117Z,-1.36
2018-03-30T00:47:23.207Z,-1.43
2018-03-30T00:48:23.155Z,-1.47
2018-03-30T00:49:23.220Z,-1.49
2018-03-30T00:50:23.101Z,-1.52
2018-03-30T00:51:23.164Z,-1.52
2018-03-30T00:52:23.097Z,-1.49
2018-03-30T00:53:23.204Z,-1.48
2018-03-30T00:54:23.164Z,-1.48
2018-03-30T00:55:23.131Z,-1.52
2018-03-30T00:56:23.103Z,-1.54
2018-03-30T00:57:23.190Z,-1.59
2018-03-30T00:58:23.165Z,-1.63
2018-03-30T00:59:23.219Z,-1.67
2018-03-30T01:00:23.292Z,-1.73
2018-03-30T01:01:23.220Z,-1.78
2018-03-30T01:02:23.169Z,-1.81
2018-03-30T01:03:23.169Z,-1.78
2018-03-30T01:04:23.250Z,-1.74
2018-03-30T01:05:23.171Z,-1.71
2018-03-30T01:06:23.132Z,-1.70
2018-03-30T01:07:23.223Z,-1.71
2018-03-30T01:08:23.132Z,-1.70
2018-03-30T01:09:23.217Z,-1.63
2018-03-30T01:10:23.140Z,-1.62
2018-03-30T01:11:23.113Z,-1.58
2018-03-30T01:12:23.127Z,-1.60
2018-03-30T01:13:23.222Z,-1.62
2018-03-30T01:14:23.225Z,-1.65
2018-03-30T01:15:23.108Z,-1.66
2018-03-30T01:16:23.110Z,-1.67
2018-03-30T01:17:23.226Z,-1.65
2018-03-30T01:18:23.229Z,-1.69
2018-03-30T01:19:23.217Z,-1.70
2018-03-30T01:20:23.229Z,-1.70
2018-03-30T01:21:23.119Z,-1.70
2018-03-30T01:22:23.182Z,-1.74
2018-03-30T01:23:23.149Z,-1.74
2018-03-30T01:24:23.184Z,-1.74
2018-03-30T01:25:23.148Z,-1.60
2018-03-30T01:26:23.118Z,-1.48
2018-03-30T01:27:23.114Z,-1.38
2018-03-30T01:28:23.237Z,-1.25
2018-03-30T01:29:23.124Z,-1.21
2018-03-30T01:30:23.235Z,-1.13
2018-03-30T01:31:23.238Z,-1.03
2018-03-30T01:32:23.242Z,-1.00
2018-03-30T01:33:23.121Z,-0.97
2018-03-30T01:34:23.233Z,-0.97
2018-03-30T01:35:23.153Z,-0.93
2018-03-30T01:36:23.232Z,-0.91
2018-03-30T01:37:23.184Z,-0.86
2018-03-30T01:38:23.154Z,-0.82
2018-03-30T01:39:23.196Z,-0.82
2018-03-30T01:40:23.234Z,-0.84
2018-03-30T01:41:23.164Z,-0.84
2018-03-30T01:42:23.195Z,-0.86
2018-03-30T01:43:23.239Z,-0.89
2018-03-30T01:44:23.154Z,-0.92
2018-03-30T01:45:23.187Z,-0.95
2018-03-30T01:46:23.250Z,-0.97
2018-03-30T01:47:23.160Z,-0.99
2018-03-30T01:48:23.252Z,-1.03
2018-03-30T01:49:23.153Z,-1.06
2018-03-30T01:50:23.168Z,-1.06
2018-03-30T01:51:23.169Z,-1.06
2018-03-30T01:52:23.253Z,-1.04
2018-03-30T01:53:23.131Z,-1.04
2018-03-30T01:54:23.157Z,-1.06
2018-03-30T01:55:23.163Z,-1.04
2018-03-30T01:56:23.160Z,-1.03
2018-03-30T01:57:23.246Z,-1.04
2018-03-30T01:58:23.208Z,-1.08
2018-03-30T01:59:23.244Z,-1.08
2018-03-30T02:00:23.203Z,-1.10
2018-03-30T02:01:23.142Z,-1.06
2018-03-30T02:02:23.143Z,-1.04
2018-03-30T02:03:23.253Z,-1.04
2018-03-30T02:04:23.203Z,-1.04
2018-03-30T02:05:23.213Z,-1.06
2018-03-30T02:06:23.210Z,-1.08
2018-03-30T02:07:23.260Z,-1.10
2018-03-30T02:08:23.228Z,-1.14
2018-03-30T02:09:23.262Z,-1.15
2018-03-30T02:10:23.209Z,-1.19
2018-03-30T02:11:23.237Z,-1.25
2018-03-30T02:12:23.257Z,-1.30
2018-03-30T02:13:23.263Z,-1.38
2018-03-30T02:14:23.261Z,-1.41
2018-03-30T02:15:23.234Z,-1.47
2018-03-30T02:16:23.149Z,-1.49
2018-03-30T02:17:23.173Z,-1.51
2018-03-30T02:18:23.152Z,-1.55
2018-03-30T02:19:23.175Z,-1.62
2018-03-30T02:20:23.268Z,-1.65
2018-03-30T02:21:23.220Z,-1.70
2018-03-30T02:22:23.273Z,-1.74
2018-03-30T02:23:23.187Z,-1.78
2018-03-30T02:24:23.224Z,-1.82
2018-03-30T02:25:23.275Z,-1.89
2018-03-30T02:26:23.180Z,-1.95
2018-03-30T02:27:23.221Z,-1.97
2018-03-30T02:28:23.272Z,-2.00
2018-03-30T02:29:23.222Z,-2.00
2018-03-30T02:30:23.160Z,-2.01
2018-03-30T02:31:23.164Z,-2.04
2018-03-30T02:32:23.222Z,-2.02
2018-03-30T02:33:23.160Z,-2.05
2018-03-30T02:34:23.225Z,-2.07
2018-03-30T02:35:23.223Z,-2.05
2018-03-30T02:36:23.231Z,-2.08
2018-03-30T02:37:23.233Z,-2.12
2018-03-30T02:38:23.169Z,-2.13
2018-03-30T02:39:23.272Z,-2.18
2018-03-30T02:40:23.192Z,-2.15
2018-03-30T02:41:23.160Z,-2.07
2018-03-30T02:42:23.192Z,-2.02
2018-03-30T02:43:23.271Z,-1.98
2018-03-30T02:44:23.167Z,-1.97
2018-03-30T02:45:27.549Z,-1.89
2018-03-30T02:46:23.162Z,-1.87
2018-03-30T02:47:23.169Z,-1.88
2018-03-30T02:48:23.291Z,-1.87
2018-03-30T02:49:23.260Z,-1.88
2018-03-30T02:50:23.287Z,-1.84
2018-03-30T02:51:23.326Z,-1.81
2018-03-30T02:52:23.252Z,-1.71
2018-03-30T02:53:23.235Z,-1.62
2018-03-30T02:54:23.264Z,-1.54
2018-03-30T02:55:23.242Z,-1.54
2018-03-30T02:56:23.235Z,-1.52
2018-03-30T02:57:23.182Z,-1.52
2018-03-30T02:58:23.264Z,-1.54
2018-03-30T02:59:23.239Z,-1.45
2018-03-30T03:00:23.237Z,-1.47
2018-03-30T03:01:23.266Z,-1.41
2018-03-30T03:02:23.247Z,-1.40
2018-03-30T03:03:23.298Z,-1.32
2018-03-30T03:04:23.203Z,-1.25
2018-03-30T03:05:23.305Z,-1.18
2018-03-30T03:06:23.249Z,-1.14
2018-03-30T03:07:23.215Z,-1.17
2018-03-30T03:08:23.254Z,-1.21
2018-03-30T03:09:23.251Z,-1.18
2018-03-30T03:10:23.311Z,-1.17
2018-03-30T03:11:23.247Z,-1.18
2018-03-30T03:12:23.210Z,-1.21
2018-03-30T03:13:23.302Z,-1.26
2018-03-30T03:14:23.295Z,-1.32
2018-03-30T03:15:23.294Z,-1.41
2018-03-30T03:16:23.187Z,-1.51
2018-03-30T03:17:23.297Z,-1.59
2018-03-30T03:18:23.221Z,-1.65
2018-03-30T03:19:23.259Z,-1.70
2018-03-30T03:20:23.308Z,-1.76
2018-03-30T03:21:23.192Z,-1.78
2018-03-30T03:22:23.252Z,-1.84
2018-03-30T03:23:23.224Z,-1.88
2018-03-30T03:24:23.251Z,-1.91
2018-03-30T03:25:23.219Z,-1.98
2018-03-30T03:26:23.261Z,-2.07
2018-03-30T03:27:23.195Z,-2.11
2018-03-30T03:28:23.225Z,-2.13
2018-03-30T03:29:23.201Z,-2.13
2018-03-30T03:30:23.228Z,-2.15
2018-03-30T03:31:23.199Z,-2.16
2018-03-30T03:32:23.226Z,-2.12
2018-03-30T03:33:23.308Z,-2.08
2018-03-30T03:34:23.325Z,-2.05
2018-03-30T03:35:23.225Z,-2.07
2018-03-30T03:36:23.266Z,-2.09
2018-03-30T03:37:23.308Z,-2.08
2018-03-30T03:38:23.224Z,-2.08
2018-03-30T03:39:23.230Z,-2.09
2018-03-30T03:40:23.319Z,-2.12
2018-03-30T03:41:23.370Z,-2.09
2018-03-30T03:42:23.264Z,-2.13
2018-03-30T03:43:23.291Z,-2.15
2018-03-30T03:44:23.271Z,-2.19
2018-03-30T03:45:23.269Z,-2.19
2018-03-30T03:46:23.310Z,-2.19
2018-03-30T03:47:23.236Z,-2.26
2018-03-30T03:48:23.272Z,-2.31
2018-03-30T03:49:23.206Z,-2.35
2018-03-30T03:50:23.274Z,-2.40
2018-03-30T03:51:23.210Z,-2.45
2018-03-30T03:52:23.270Z,-2.47
2018-03-30T03:53:23.240Z,-2.49
2018-03-30T03:54:23.228Z,-2.52
2018-03-30T03:55:23.324Z,-2.52
2018-03-30T03:56:23.325Z,-2.52
2018-03-30T03:57:23.234Z,-2.51
2018-03-30T03:58:23.333Z,-2.47
2018-03-30T03:59:23.239Z,-2.42
2018-03-30T04:00:23.244Z,-2.35
2018-03-30T04:01:23.333Z,-2.30
2018-03-30T04:02:23.212Z,-2.22
2018-03-30T04:03:23.283Z,-2.05
2018-03-30T04:04:23.331Z,-1.87
2018-03-30T04:05:23.246Z,-1.71
2018-03-30T04:06:23.244Z,-1.58
2018-03-30T04:07:23.336Z,-1.45
2018-03-30T04:08:23.215Z,-1.36
2018-03-30T04:09:23.332Z,-1.25
2018-03-30T04:10:23.253Z,-1.17
2018-03-30T04:11:23.311Z,-1.13
2018-03-30T04:12:23.284Z,-1.11
2018-03-30T04:13:23.315Z,-1.10
2018-03-30T04:14:23.289Z,-1.06
2018-03-30T04:15:23.221Z,-0.97
2018-03-30T04:16:23.251Z,-0.93
2018-03-30T04:17:23.251Z,-0.88
2018-03-30T04:18:23.294Z,-0.84
2018-03-30T04:19:23.258Z,-0.81
2018-03-30T04:20:23.339Z,-0.82
2018-03-30T04:21:23.343Z,-0.84
2018-03-30T04:22:23.249Z,-0.84
2018-03-30T04:23:23.314Z,-0.84
2018-03-30T04:24:23.335Z,-0.85
2018-03-30T04:25:23.319Z,-0.86
2018-03-30T04:26:23.250Z,-0.86
2018-03-30T04:27:23.260Z,-0.86
2018-03-30T04:28:23.234Z,-0.88
2018-03-30T04:29:23.236Z,-0.88
2018-03-30T04:30:23.252Z,-0.88
2018-03-30T04:31:23.264Z,-0.88
2018-03-30T04:32:23.352Z,-0.88
2018-03-30T04:33:23.324Z,-0.88
2018-03-30T04:34:23.257Z,-0.91
2018-03-30T04:35:23.392Z,-0.91
2018-03-30T04:36:23.235Z,-0.92
2018-03-30T04:37:23.259Z,-0.88
2018-03-30T04:38:23.234Z,-0.88
2018-03-30T04:39:23.236Z,-0.89
2018-03-30T04:40:23.242Z,-0.88
2018-03-30T04:41:23.326Z,-0.85
2018-03-30T04:42:23.358Z,-0.84
2018-03-30T04:43:23.356Z,-0.84
2018-03-30T04:44:23.304Z,-0.82
2018-03-30T04:45:23.276Z,-0.81
2018-03-30T04:46:23.242Z,-0.80
2018-03-30T04:47:23.327Z,-0.78
2018-03-30T04:48:23.363Z,-0.75
2018-03-30T04:49:23.357Z,-0.75
2018-03-30T04:50:23.350Z,-0.77
2018-03-30T04:51:23.316Z,-0.78
2018-03-30T04:52:23.356Z,-0.78
2018-03-30T04:53:23.310Z,-0.80
2018-03-30T04:54:23.332Z,-0.78
2018-03-30T04:55:23.305Z,-0.78
2018-03-30T04:56:23.366Z,-0.77
2018-03-30T04:57:23.273Z,-0.78
2018-03-30T04:58:23.281Z,-0.82
2018-03-30T04:59:23.253Z,-0.82
2018-03-30T05:00:23.283Z,-0.85
2018-03-30T05:01:23.245Z,-0.82
2018-03-30T05:02:23.356Z,-0.84
2018-03-30T05:03:23.326Z,-0.84
2018-03-30T05:04:23.259Z,-0.82
2018-03-30T05:05:23.289Z,-0.80
2018-03-30T05:06:23.359Z,-0.80
2018-03-30T05:07:23.257Z,-0.77
2018-03-30T05:08:23.369Z,-0.75
2018-03-30T05:09:23.376Z,-0.70
2018-03-30T05:10:23.325Z,-0.67
2018-03-30T05:11:23.365Z,-0.62
2018-03-30T05:12:23.375Z,-0.61
2018-03-30T05:13:23.375Z,-0.59
2018-03-30T05:14:23.289Z,-0.58
2018-03-30T05:15:23.319Z,-0.55
2018-03-30T05:16:23.378Z,-0.54
2018-03-30T05:17:23.281Z,-0.50
2018-03-30T05:18:23.379Z,-0.46
2018-03-30T05:19:23.372Z,-0.42
2018-03-30T05:20:23.374Z,-0.39
2018-03-30T05:21:23.386Z,-0.36
2018-03-30T05:22:23.381Z,-0.32
2018-03-30T05:23:23.383Z,-0.31
2018-03-30T05:24:23.257Z,-0.32
2018-03-30T05:25:23.321Z,-0.31
2018-03-30T05:26:23.334Z,-0.31
2018-03-30T05:27:23.377Z,-0.32
2018-03-30T05:28:23.296Z,-0.31
2018-03-30T05:29:23.320Z,-0.28
2018-03-30T05:30:23.324Z,-0.27
2018-03-30T05:31:23.321Z,-0.25
2018-03-30T05:32:23.296Z,-0.24
2018-03-30T05:33:23.376Z,-0.22
2018-03-30T05:34:23.385Z,-0.22
2018-03-30T05:35:23.296Z,-0.22
2018-03-30T05:36:23.294Z,-0.22
2018-03-30T05:37:23.369Z,-0.21
2018-03-30T05:38:23.359Z,-0.18
2018-03-30T05:39:23.387Z,-0.17
2018-03-30T05:40:23.360Z,-0.18
2018-03-30T05:41:23.365Z,-0.18
2018-03-30T05:42:23.358Z,-0.17
2018-03-30T05:43:23.267Z,-0.18
2018-03-30T05:44:23.328Z,-0.17
2018-03-30T05:45:23.337Z,-0.15
2018-03-30T05:46:23.346Z,-0.14
2018-03-30T05:47:23.361Z,-0.13
2018-03-30T05:48:24.282Z,-0.08
2018-03-30T05:49:23.369Z,-0.06
2018-03-30T05:50:23.366Z,-0.06
2018-03-30T05:51:23.308Z,-0.03
2018-03-30T05:52:23.308Z,-0.02
2018-03-30T05:53:23.278Z,-0.02
2018-03-30T05:54:23.337Z,-0.01
2018-03-30T05:55:23.304Z,0.00
2018-03-30T05:56:23.300Z,0.01
2018-03-30T05:57:23.398Z,0.02
2018-03-30T05:58:23.273Z,0.05
2018-03-30T05:59:23.373Z,0.07
2018-03-30T06:00:23.373Z,0.08
2018-03-30T06:01:23.398Z,0.11
2018-03-30T06:02:23.448Z,0.15
2018-03-30T06:03:23.356Z,0.18
2018-03-30T06:04:23.346Z,0.22
2018-03-30T06:05:23.377Z,0.22
2018-03-30T06:06:23.347Z,0.24
2018-03-30T06:07:23.349Z,0.27
2018-03-30T06:08:23.376Z,0.27
2018-03-30T06:09:23.407Z,0.30
2018-03-30T06:10:23.351Z,0.33
2018-03-30T06:11:23.399Z,0.33
2018-03-30T06:12:23.403Z,0.36
2018-03-30T06:13:23.368Z,0.37
2018-03-30T06:14:23.410Z,0.41
2018-03-30T06:15:23.375Z,0.42
2018-03-30T06:16:23.301Z,0.44
2018-03-30T06:17:23.351Z,0.47
2018-03-30T06:18:23.294Z,0.48
2018-03-30T06:19:23.325Z,0.51
2018-03-30T06:20:23.346Z,0.49
2018-03-30T06:21:23.326Z,0.53
2018-03-30T06:22:23.404Z,0.53
2018-03-30T06:23:23.413Z,0.56
2018-03-30T06:24:23.354Z,0.57
2018-03-30T06:25:23.291Z,0.59
2018-03-30T06:26:23.361Z,0.61
2018-03-30T06:27:23.304Z,0.65
2018-03-30T06:28:23.324Z,0.67
2018-03-30T06:29:23.381Z,0.71
2018-03-30T06:30:23.413Z,0.74
2018-03-30T06:31:23.332Z,0.74
2018-03-30T06:32:23.395Z,0.78
2018-03-30T06:33:23.414Z,0.79
2018-03-30T06:34:23.332Z,0.79
2018-03-30T06:35:23.334Z,0.79
2018-03-30T06:36:23.368Z,0.81
2018-03-30T06:37:23.360Z,0.85
2018-03-30T06:38:23.332Z,0.88
2018-03-30T06:39:23.427Z,0.91
2018-03-30T06:40:23.309Z,0.94
2018-03-30T06:41:23.392Z,0.97
2018-03-30T06:42:23.421Z,0.95
2018-03-30T06:43:23.399Z,0.93
2018-03-30T06:44:23.307Z,0.94
2018-03-30T06:45:23.374Z,0.93
2018-03-30T06:46:23.339Z,0.94
2018-03-30T06:47:23.365Z,0.97
2018-03-30T06:48:23.399Z,0.97
2018-03-30T06:49:23.396Z,1.02
2018-03-30T06:50:23.371Z,1.05
2018-03-30T06:51:23.422Z,1.12
2018-03-30T06:52:23.427Z,1.17
2018-03-30T06:53:23.337Z,1.18
2018-03-30T06:54:23.313Z,1.27
2018-03-30T06:55:23.427Z,1.34
2018-03-30T06:56:23.344Z,1.40
2018-03-30T06:57:23.431Z,1.50
2018-03-30T06:58:23.318Z,1.53
2018-03-30T06:59:23.316Z,1.60
2018-03-30T07:00:23.313Z,1.68
2018-03-30T07:01:23.342Z,1.74
2018-03-30T07:02:23.435Z,1.79
2018-03-30T07:03:23.431Z,1.91
2018-03-30T07:04:23.351Z,1.99
2018-03-30T07:05:23.428Z,2.08
2018-03-30T07:06:23.346Z,2.15
2018-03-30T07:07:23.442Z,2.19
2018-03-30T07:08:23.323Z,2.21
2018-03-30T07:09:23.331Z,2.27
2018-03-30T07:10:23.382Z,2.36
2018-03-30T07:11:23.319Z,2.43
2018-03-30T07:12:23.443Z,2.47
2018-03-30T07:13:23.442Z,2.57
2018-03-30T07:14:23.417Z,2.66
2018-03-30T07:15:23.415Z,2.76
2018-03-30T07:16:23.383Z,2.79
2018-03-30T07:17:23.418Z,2.84
2018-03-30T07:18:23.440Z,2.92
2018-03-30T07:19:23.449Z,3.05
2018-03-30T07:20:23.335Z,3.22
2018-03-30T07:21:23.446Z,3.42
2018-03-30T07:22:23.332Z,3.51
2018-03-30T07:23:23.331Z,3.64
2018-03-30T07:24:23.329Z,3.72
2018-03-30T07:25:23.389Z,3.85
2018-03-30T07:26:23.365Z,3.97
2018-03-30T07:27:23.359Z,4.15
2018-03-30T07:28:23.363Z,4.29
2018-03-30T07:29:23.426Z,4.33
2018-03-30T07:30:23.333Z,4.37
2018-03-30T07:31:23.343Z,4.50
2018-03-30T07:32:23.431Z,4.69
2018-03-30T07:33:23.364Z,4.92
2018-03-30T07:34:23.397Z,5.14
2018-03-30T07:35:23.458Z,5.30
2018-03-30T07:36:23.459Z,5.40
2018-03-30T07:37:23.382Z,5.41
2018-03-30T07:38:23.503Z,5.49
2018-03-30T07:39:23.375Z,5.70
2018-03-30T07:40:23.463Z,5.82
2018-03-30T07:41:23.388Z,5.96
2018-03-30T07:42:23.460Z,5.96
2018-03-30T07:43:23.463Z,5.99
2018-03-30T07:44:23.342Z,6.08
2018-03-30T07:45:23.462Z,6.16
2018-03-30T07:46:23.438Z,6.22
2018-03-30T07:47:23.350Z,6.40
2018-03-30T07:48:23.351Z,6.47
2018-03-30T07:49:23.438Z,6.48
2018-03-30T07:50:23.436Z,6.48
2018-03-30T07:51:23.418Z,6.51
2018-03-30T07:52:23.459Z,6.51
2018-03-30T07:53:23.462Z,6.45
2018-03-30T07:54:23.418Z,6.41
2018-03-30T07:55:23.441Z,6.29
2018-03-30T07:56:23.463Z,6.23
2018-03-30T07:57:23.440Z,6.22
2018-03-30T07:58:23.349Z,6.16
2018-03-30T07:59:23.424Z,6.22
2018-03-30T08:00:23.412Z,6.20
2018-03-30T08:01:23.384Z,6.29
2018-03-30T08:02:23.465Z,6.22
2018-03-30T08:03:23.446Z,6.29
2018-03-30T08:04:23.468Z,6.31
2018-03-30T08:05:23.479Z,6.36
2018-03-30T08:06:23.351Z,6.55
2018-03-30T08:07:23.391Z,6.67
2018-03-30T08:08:23.475Z,6.67
2018-03-30T08:09:23.481Z,6.64
2018-03-30T08:10:23.451Z,6.60
2018-03-30T08:11:23.425Z,6.77
2018-03-30T08:12:23.450Z,6.70
2018-03-30T08:13:23.419Z,6.74
2018-03-30T08:14:23.388Z,6.90
2018-03-30T08:15:23.363Z,7.01
2018-03-30T08:16:23.434Z,7.00
2018-03-30T08:17:23.430Z,7.08
2018-03-30T08:18:23.373Z,7.33
2018-03-30T08:19:23.357Z,7.44
2018-03-30T08:20:23.449Z,7.45
2018-03-30T08:21:23.432Z,7.30
2018-03-30T08:22:23.437Z,7.33
2018-03-30T08:23:23.436Z,7.49
2018-03-30T08:24:23.481Z,7.67
2018-03-30T08:25:23.482Z,7.75
2018-03-30T08:26:23.478Z,7.64
2018-03-30T08:27:23.367Z,7.71
2018-03-30T08:28:23.488Z,7.93
2018-03-30T08:29:23.401Z,8.12
2018-03-30T08:30:23.457Z,8.28
2018-03-30T08:31:23.484Z,8.22
2018-03-30T08:32:23.431Z,8.06
2018-03-30T08:33:23.398Z,8.06
2018-03-30T08:34:23.464Z,8.16
2018-03-30T08:35:23.431Z,8.27
2018-03-30T08:36:23.443Z,8.31
2018-03-30T08:37:23.404Z,8.30
2018-03-30T08:38:23.376Z,8.35
2018-03-30T08:39:23.386Z,8.30
2018-03-30T08:40:23.461Z,8.51
2018-03-30T08:41:23.525Z,8.30
2018-03-30T08:42:23.409Z,8.06
2018-03-30T08:43:23.470Z,8.05
2018-03-30T08:44:23.492Z,8.19
2018-03-30T08:45:23.500Z,8.38
2018-03-30T08:46:23.442Z,8.57
2018-03-30T08:47:23.450Z,8.71
2018-03-30T08:48:23.389Z,8.86
2018-03-30T08:49:23.511Z,8.98
2018-03-30T08:50:23.503Z,9.04
2018-03-30T08:51:23.385Z,9.19
2018-03-30T08:52:23.392Z,9.34
2018-03-30T08:53:23.458Z,9.43
2018-03-30T08:54:23.531Z,9.36
2018-03-30T08:55:23.494Z,9.46
2018-03-30T08:56:23.393Z,9.71
2018-03-30T08:57:23.513Z,9.95
2018-03-30T08:58:23.416Z,10.11
2018-03-30T08:59:23.388Z,10.38
2018-03-30T09:00:23.504Z,10.63
2018-03-30T09:01:23.510Z,10.65
2018-03-30T09:02:23.456Z,10.57
2018-03-30T09:03:23.508Z,10.61
2018-03-30T09:04:23.480Z,10.53
2018-03-30T09:05:23.417Z,10.53
2018-03-30T09:06:23.488Z,10.65
2018-03-30T09:07:23.395Z,10.54
2018-03-30T09:08:23.455Z,10.69
2018-03-30T09:09:23.454Z,10.74
2018-03-30T09:10:23.519Z,10.64
2018-03-30T09:11:23.450Z,10.65
2018-03-30T09:12:23.441Z,10.77
2018-03-30T09:13:23.395Z,10.63
2018-03-30T09:14:23.405Z,10.57
2018-03-30T09:15:23.512Z,10.65
2018-03-30T09:16:23.398Z,10.77
2018-03-30T09:17:23.437Z,10.84
2018-03-30T09:18:23.463Z,10.94
2018-03-30T09:19:23.520Z,10.90
2018-03-30T09:20:23.517Z,11.07
2018-03-30T09:21:23.464Z,11.29
2018-03-30T09:22:23.473Z,11.47
2018-03-30T09:23:23.411Z,11.56
2018-03-30T09:24:23.517Z,11.78
2018-03-30T09:25:23.528Z,11.97
2018-03-30T09:26:23.433Z,12.16
2018-03-30T09:27:23.462Z,12.05
2018-03-30T09:28:23.433Z,12.05
2018-03-30T09:29:23.403Z,12.06
2018-03-30T09:30:23.403Z,12.09
2018-03-30T09:31:23.504Z,12.21
2018-03-30T09:32:23.423Z,12.10
2018-03-30T09:33:23.419Z,12.08
2018-03-30T09:34:23.524Z,11.94
2018-03-30T09:35:23.417Z,11.89
2018-03-30T09:36:23.481Z,11.68
2018-03-30T09:37:23.526Z,11.69
2018-03-30T09:38:23.484Z,11.98
2018-03-30T09:39:23.431Z,12.03
2018-03-30T09:40:23.415Z,12.14
2018-03-30T09:41:23.483Z,12.32
2018-03-30T09:42:23.478Z,12.31
2018-03-30T09:43:23.449Z,12.40
2018-03-30T09:44:23.536Z,12.48
2018-03-30T09:45:23.529Z,12.53
2018-03-30T09:46:23.455Z,12.71
2018-03-30T09:47:23.547Z,12.60
2018-03-30T09:48:23.422Z,12.36
2018-03-30T09:49:23.492Z,12.33
2018-03-30T09:50:23.507Z,12.42
2018-03-30T09:51:23.421Z,12.54
2018-03-30T09:52:23.513Z,12.68
2018-03-30T09:53:23.541Z,12.61
2018-03-30T09:54:23.481Z,12.55
2018-03-30T09:55:23.484Z,12.47
2018-03-30T09:56:23.538Z,12.66
2018-03-30T09:57:23.466Z,12.69
2018-03-30T09:58:23.456Z,12.83
2018-03-30T09:59:23.432Z,13.03
2018-03-30T10:00:23.520Z,12.72
2018-03-30T10:01:23.425Z,12.61
2018-03-30T10:02:23.539Z,12.76
2018-03-30T10:03:23.517Z,13.02
2018-03-30T10:04:23.600Z,13.29
2018-03-30T10:05:23.456Z,13.50
2018-03-30T10:06:23.493Z,13.62
2018-03-30T10:07:23.489Z,13.36
2018-03-30T10:08:23.493Z,13.35
2018-03-30T10:09:23.556Z,13.36
2018-03-30T10:10:23.546Z,13.54
2018-03-30T10:11:23.441Z,13.50
2018-03-30T10:12:23.430Z,13.36
2018-03-30T10:13:23.429Z,13.29
2018-03-30T10:14:23.527Z,13.38
2018-03-30T10:15:23.435Z,13.31
2018-03-30T10:16:23.436Z,13.35
2018-03-30T10:17:23.468Z,13.70
2018-03-30T10:18:23.442Z,14.03
2018-03-30T10:19:23.491Z,14.43
2018-03-30T10:20:23.533Z,14.32
2018-03-30T10:21:23.440Z,14.20
2018-03-30T10:22:23.443Z,14.22
2018-03-30T10:23:23.449Z,13.99
2018-03-30T10:24:23.501Z,13.88
2018-03-30T10:25:23.503Z,13.61
2018-03-30T10:26:23.560Z,13.56
2018-03-30T10:27:23.444Z,13.43
2018-03-30T10:28:23.538Z,13.57
2018-03-30T10:29:23.564Z,13.77
2018-03-30T10:30:23.514Z,13.61
2018-03-30T10:31:23.449Z,13.47
2018-03-30T10:32:23.559Z,13.62
2018-03-30T10:33:23.512Z,13.72
2018-03-30T10:34:23.531Z,13.66
2018-03-30T10:35:23.542Z,13.88
2018-03-30T10:36:23.522Z,13.88
2018-03-30T10:37:23.563Z,13.66
2018-03-30T10:38:23.535Z,13.54
2018-03-30T10:39:23.542Z,13.77
2018-03-30T10:40:23.463Z,14.00
2018-03-30T10:42:23.545Z,14.06
2018-03-30T10:43:23.536Z,14.13
2018-03-30T10:44:23.454Z,14.15
2018-03-30T10:45:23.545Z,14.15
2018-03-30T10:46:23.479Z,14.43
2018-03-30T10:47:23.574Z,14.44
2018-03-30T10:48:23.575Z,14.61
2018-03-30T10:49:23.574Z,14.47
2018-03-30T10:50:23.478Z,14.39
2018-03-30T10:51:23.467Z,14.11
2018-03-30T10:52:23.464Z,14.11
2018-03-30T10:53:23.569Z,14.25
2018-03-30T10:54:23.549Z,14.00
2018-03-30T10:55:23.488Z,13.81
2018-03-30T10:56:23.521Z,13.79
2018-03-30T10:57:23.579Z,14.00
2018-03-30T10:58:23.490Z,13.86
2018-03-30T10:59:23.578Z,13.89
2018-03-30T11:00:23.470Z,14.06
2018-03-30T11:01:23.582Z,14.02
2018-03-30T11:02:23.461Z,14.00
2018-03-30T11:03:23.525Z,13.66
2018-03-30T11:04:23.468Z,13.31
2018-03-30T11:05:23.524Z,13.24
2018-03-30T11:06:23.465Z,13.09
2018-03-30T11:07:23.466Z,12.92
2018-03-30T11:08:23.533Z,12.80
2018-03-30T11:09:23.578Z,12.82
2018-03-30T11:10:23.469Z,12.79
2018-03-30T11:11:23.526Z,12.77
2018-03-30T11:12:23.584Z,12.68
2018-03-30T11:13:23.500Z,12.77
2018-03-30T11:14:23.469Z,13.05
2018-03-30T11:15:23.480Z,13.17
2018-03-30T11:16:23.592Z,13.28
2018-03-30T11:17:23.568Z,13.51
2018-03-30T11:18:23.532Z,13.49
2018-03-30T11:19:23.591Z,13.43
2018-03-30T11:20:23.560Z,13.47
2018-03-30T11:21:23.540Z,13.49
2018-03-30T11:22:23.489Z,13.69
2018-03-30T11:23:23.569Z,13.39
2018-03-30T11:24:23.483Z,13.24
2018-03-30T11:25:23.569Z,13.03
2018-03-30T11:26:23.538Z,13.03
2018-03-30T11:27:23.595Z,13.16
2018-03-30T11:28:23.599Z,13.31
2018-03-30T11:29:23.554Z,13.59
2018-03-30T11:30:23.593Z,13.80
2018-03-30T11:31:23.596Z,13.92
2018-03-30T11:32:23.597Z,13.88
2018-03-30T11:33:23.483Z,14.21
2018-03-30T11:34:23.482Z,14.35
2018-03-30T11:35:23.483Z,14.17
2018-03-30T11:36:23.599Z,14.25
2018-03-30T11:37:23.606Z,14.38
2018-03-30T11:38:23.608Z,14.71
2018-03-30T11:39:23.488Z,14.76
2018-03-30T11:40:23.611Z,14.43
2018-03-30T11:41:23.600Z,14.13
2018-03-30T11:42:23.558Z,13.81
2018-03-30T11:43:23.518Z,13.83
2018-03-30T11:44:23.494Z,13.75
2018-03-30T11:45:23.513Z,13.83
2018-03-30T11:46:23.499Z,13.92
2018-03-30T11:47:23.608Z,14.06
2018-03-30T11:48:23.492Z,14.29
2018-03-30T11:49:23.578Z,14.18
2018-03-30T11:50:23.533Z,14.00
2018-03-30T11:51:23.554Z,13.95
2018-03-30T11:52:23.582Z,14.04
2018-03-30T11:53:23.557Z,14.29
2018-03-30T11:54:23.494Z,14.50
2018-03-30T11:55:23.494Z,14.82
2018-03-30T11:57:23.567Z,15.73
2018-03-30T11:58:23.589Z,16.03
2018-03-30T11:59:23.610Z,16.14
2018-03-30T12:00:23.572Z,15.84
2018-03-30T12:01:23.527Z,15.17
2018-03-30T12:02:23.612Z,15.39
2018-03-30T12:03:23.560Z,15.66
2018-03-30T12:04:23.587Z,15.42
2018-03-30T12:05:23.617Z,15.50
2018-03-30T12:06:23.623Z,15.62
2018-03-30T12:07:23.577Z,15.66
2018-03-30T12:08:23.626Z,15.80
2018-03-30T12:09:23.592Z,15.88
2018-03-30T12:10:23.601Z,15.73
2018-03-30T12:11:23.566Z,15.95
2018-03-30T12:12:23.620Z,15.84
2018-03-30T12:13:23.567Z,15.72
2018-03-30T12:14:23.567Z,15.76
2018-03-30T12:15:23.565Z,15.90
2018-03-30T12:16:23.566Z,15.73
2018-03-30T12:17:23.537Z,15.64
2018-03-30T12:18:23.508Z,15.51
2018-03-30T12:19:23.536Z,15.62
2018-03-30T12:20:23.509Z,15.70
2018-03-30T12:21:23.519Z,15.51
2018-03-30T12:22:23.513Z,15.39
2018-03-30T12:23:23.511Z,15.36
2018-03-30T12:24:23.557Z,15.55
2018-03-30T12:25:23.578Z,15.51
2018-03-30T12:26:23.638Z,15.66
2018-03-30T12:27:23.524Z,15.32
2018-03-30T12:28:23.610Z,14.89
2018-03-30T12:29:23.517Z,14.79
2018-03-30T12:30:23.636Z,14.79
2018-03-30T12:31:23.641Z,14.89
2018-03-30T12:32:23.640Z,14.82
2018-03-30T12:33:23.605Z,14.92
2018-03-30T12:34:23.516Z,14.92
2018-03-30T12:35:23.637Z,15.10
2018-03-30T12:36:23.564Z,15.06
2018-03-30T12:37:23.641Z,14.92
2018-03-30T12:38:23.643Z,14.55
2018-03-30T12:39:23.586Z,14.32
2018-03-30T12:40:23.525Z,14.24
2018-03-30T12:41:23.524Z,14.27
2018-03-30T12:42:23.642Z,14.25
2018-03-30T12:43:23.557Z,14.28
2018-03-30T12:44:23.522Z,14.18
2018-03-30T12:45:23.587Z,14.39
2018-03-30T12:46:23.586Z,14.33
2018-03-30T12:47:23.535Z,14.36
2018-03-30T12:48:23.621Z,14.42
2018-03-30T12:49:23.538Z,14.47
2018-03-30T12:50:23.605Z,14.57
2018-03-30T12:51:23.573Z,14.83
2018-03-30T12:52:23.625Z,14.95
2018-03-30T12:53:23.649Z,15.07
2018-03-30T12:54:23.566Z,15.13
2018-03-30T12:55:23.578Z,15.14
2018-03-30T12:56:23.605Z,15.22
2018-03-30T12:57:23.624Z,15.19
2018-03-30T12:58:23.628Z,15.25
2018-03-30T12:59:23.658Z,15.39
2018-03-30T13:00:23.605Z,14.96